X  Sluiten METAR luchtvaart weer gegevens      EHGG Eelde Airport
Temperatuur
21°C Temperatuur
11°C Dauwpunt
53% Vochtigheid



Wind
16 KM/U
10 MPH
4 M/S
9 KTS



260°
W
Huidig weer

Grotendeels bewolkt Grotendeels bewolkt
Luchtdruk 1009.82 (hPa) - 29.82 (inHg)
Zicht 6 (mijl) - 9.7 (km)
Vliegveld
Vliegveld code EHGG

Locatie : Eelde Airport
Afstand: 32 (km)

Metar:
EHGG 171255Z AUTO 26009KT 220V300 9999 BKN039 BKN043 BKN049 21/11 Q1010 NOSIG

Tijd: 17-06-2024 14:55 CEST